sensor_id;sensor_type;location;lat;lon;timestamp;P1;durP1;ratioP1;P2;durP2;ratioP2
66927;SDS011;59882;45.624;11.698;2024-01-11T00:01:48;55.50;;;30.52;;
66927;SDS011;59882;45.624;11.698;2024-01-11T00:04:14;56.23;;;30.67;;
66927;SDS011;59882;45.624;11.698;2024-01-11T00:06:43;60.30;;;28.73;;
66927;SDS011;59882;45.624;11.698;2024-01-11T00:09:09;54.43;;;30.73;;
66927;SDS011;59882;45.624;11.698;2024-01-11T00:11:35;49.47;;;28.50;;
66927;SDS011;59882;45.624;11.698;2024-01-11T00:14:00;56.70;;;30.03;;
66927;SDS011;59882;45.624;11.698;2024-01-11T00:16:26;53.28;;;27.88;;
66927;SDS011;59882;45.624;11.698;2024-01-11T00:18:51;52.03;;;29.80;;
66927;SDS011;59882;45.624;11.698;2024-01-11T00:21:17;48.67;;;26.17;;
66927;SDS011;59882;45.624;11.698;2024-01-11T00:23:43;47.50;;;27.43;;
66927;SDS011;59882;45.624;11.698;2024-01-11T00:26:08;51.08;;;28.20;;
66927;SDS011;59882;45.624;11.698;2024-01-11T00:28:36;49.43;;;28.23;;
66927;SDS011;59882;45.624;11.698;2024-01-11T00:31:02;51.47;;;27.63;;
66927;SDS011;59882;45.624;11.698;2024-01-11T00:33:28;46.27;;;24.60;;
66927;SDS011;59882;45.624;11.698;2024-01-11T00:35:53;44.58;;;26.63;;
66927;SDS011;59882;45.624;11.698;2024-01-11T00:38:19;55.80;;;28.30;;
66927;SDS011;59882;45.624;11.698;2024-01-11T00:40:45;44.58;;;26.58;;
66927;SDS011;59882;45.624;11.698;2024-01-11T00:43:11;45.83;;;26.93;;
66927;SDS011;59882;45.624;11.698;2024-01-11T00:45:36;44.17;;;25.20;;
66927;SDS011;59882;45.624;11.698;2024-01-11T00:48:03;47.83;;;28.23;;
66927;SDS011;59882;45.624;11.698;2024-01-11T00:50:29;53.50;;;28.40;;
66927;SDS011;59882;45.624;11.698;2024-01-11T00:52:55;52.38;;;27.77;;
66927;SDS011;59882;45.624;11.698;2024-01-11T00:55:20;49.97;;;29.03;;
66927;SDS011;59882;45.624;11.698;2024-01-11T00:57:46;52.95;;;30.05;;
66927;SDS011;59882;45.624;11.698;2024-01-11T01:00:12;46.50;;;25.63;;
66927;SDS011;59882;45.624;11.698;2024-01-11T01:02:39;50.35;;;27.65;;
66927;SDS011;59882;45.624;11.698;2024-01-11T01:05:05;49.75;;;27.85;;
66927;SDS011;59882;45.624;11.698;2024-01-11T01:07:31;49.40;;;27.92;;
66927;SDS011;59882;45.624;11.698;2024-01-11T01:09:57;46.07;;;26.20;;
66927;SDS011;59882;45.624;11.698;2024-01-11T01:12:23;46.08;;;27.08;;
66927;SDS011;59882;45.624;11.698;2024-01-11T01:14:50;46.45;;;26.88;;
66927;SDS011;59882;45.624;11.698;2024-01-11T01:17:16;48.53;;;28.47;;
66927;SDS011;59882;45.624;11.698;2024-01-11T01:19:41;44.17;;;27.35;;
66927;SDS011;59882;45.624;11.698;2024-01-11T01:22:07;51.23;;;28.07;;
66927;SDS011;59882;45.624;11.698;2024-01-11T01:24:33;46.10;;;27.10;;
66927;SDS011;59882;45.624;11.698;2024-01-11T01:26:58;49.43;;;26.10;;
66927;SDS011;59882;45.624;11.698;2024-01-11T01:29:24;46.25;;;26.48;;
66927;SDS011;59882;45.624;11.698;2024-01-11T01:31:50;45.57;;;24.97;;
66927;SDS011;59882;45.624;11.698;2024-01-11T01:34:16;50.25;;;27.38;;
66927;SDS011;59882;45.624;11.698;2024-01-11T01:36:42;48.17;;;27.40;;
66927;SDS011;59882;45.624;11.698;2024-01-11T01:39:07;49.22;;;26.73;;
66927;SDS011;59882;45.624;11.698;2024-01-11T01:41:33;47.63;;;27.17;;
66927;SDS011;59882;45.624;11.698;2024-01-11T01:43:58;46.33;;;25.57;;
66927;SDS011;59882;45.624;11.698;2024-01-11T01:46:24;48.37;;;27.47;;
66927;SDS011;59882;45.624;11.698;2024-01-11T01:48:53;44.00;;;24.98;;
66927;SDS011;59882;45.624;11.698;2024-01-11T01:51:20;42.70;;;24.42;;
66927;SDS011;59882;45.624;11.698;2024-01-11T01:53:47;49.63;;;26.40;;
66927;SDS011;59882;45.624;11.698;2024-01-11T01:56:14;44.58;;;26.10;;
66927;SDS011;59882;45.624;11.698;2024-01-11T01:58:40;49.42;;;27.55;;
66927;SDS011;59882;45.624;11.698;2024-01-11T02:01:08;43.45;;;25.90;;
66927;SDS011;59882;45.624;11.698;2024-01-11T02:03:33;48.47;;;26.47;;
66927;SDS011;59882;45.624;11.698;2024-01-11T02:06:01;46.22;;;27.20;;
66927;SDS011;59882;45.624;11.698;2024-01-11T02:08:28;43.88;;;26.27;;
66927;SDS011;59882;45.624;11.698;2024-01-11T02:10:55;46.25;;;26.38;;
66927;SDS011;59882;45.624;11.698;2024-01-11T02:13:22;46.83;;;24.70;;
66927;SDS011;59882;45.624;11.698;2024-01-11T02:15:48;42.67;;;23.85;;
66927;SDS011;59882;45.624;11.698;2024-01-11T02:18:14;47.25;;;26.45;;
66927;SDS011;59882;45.624;11.698;2024-01-11T02:20:40;43.97;;;25.87;;
66927;SDS011;59882;45.624;11.698;2024-01-11T02:23:06;53.22;;;26.50;;
66927;SDS011;59882;45.624;11.698;2024-01-11T02:25:37;39.13;;;22.43;;
66927;SDS011;59882;45.624;11.698;2024-01-11T02:28:03;39.65;;;23.67;;
66927;SDS011;59882;45.624;11.698;2024-01-11T02:30:28;44.63;;;25.40;;
66927;SDS011;59882;45.624;11.698;2024-01-11T02:32:54;38.78;;;23.35;;
66927;SDS011;59882;45.624;11.698;2024-01-11T02:35:20;43.72;;;24.63;;
66927;SDS011;59882;45.624;11.698;2024-01-11T02:37:46;40.20;;;23.07;;
66927;SDS011;59882;45.624;11.698;2024-01-11T02:40:13;43.00;;;22.77;;
66927;SDS011;59882;45.624;11.698;2024-01-11T02:42:40;41.97;;;23.08;;
66927;SDS011;59882;45.624;11.698;2024-01-11T02:45:05;39.42;;;23.48;;
66927;SDS011;59882;45.624;11.698;2024-01-11T02:47:32;44.00;;;23.33;;
66927;SDS011;59882;45.624;11.698;2024-01-11T02:49:57;41.10;;;22.52;;
66927;SDS011;59882;45.624;11.698;2024-01-11T02:52:23;40.07;;;22.57;;
66927;SDS011;59882;45.624;11.698;2024-01-11T02:54:49;39.70;;;23.85;;
66927;SDS011;59882;45.624;11.698;2024-01-11T02:57:14;41.77;;;23.73;;
66927;SDS011;59882;45.624;11.698;2024-01-11T02:59:40;39.97;;;23.03;;
66927;SDS011;59882;45.624;11.698;2024-01-11T03:02:09;39.30;;;23.03;;
66927;SDS011;59882;45.624;11.698;2024-01-11T03:04:34;37.20;;;22.10;;
66927;SDS011;59882;45.624;11.698;2024-01-11T03:07:00;41.73;;;23.47;;
66927;SDS011;59882;45.624;11.698;2024-01-11T03:09:25;40.78;;;24.10;;
66927;SDS011;59882;45.624;11.698;2024-01-11T03:11:51;41.07;;;23.83;;
66927;SDS011;59882;45.624;11.698;2024-01-11T03:14:17;41.47;;;23.73;;
66927;SDS011;59882;45.624;11.698;2024-01-11T03:16:42;44.08;;;23.42;;
66927;SDS011;59882;45.624;11.698;2024-01-11T03:19:08;41.77;;;23.20;;
66927;SDS011;59882;45.624;11.698;2024-01-11T03:21:33;39.88;;;22.95;;
66927;SDS011;59882;45.624;11.698;2024-01-11T03:23:59;39.60;;;21.43;;
66927;SDS011;59882;45.624;11.698;2024-01-11T03:26:25;42.67;;;23.10;;
66927;SDS011;59882;45.624;11.698;2024-01-11T03:28:50;39.42;;;22.15;;
66927;SDS011;59882;45.624;11.698;2024-01-11T03:31:16;40.03;;;22.83;;
66927;SDS011;59882;45.624;11.698;2024-01-11T03:33:42;37.17;;;22.48;;
66927;SDS011;59882;45.624;11.698;2024-01-11T03:36:08;45.23;;;24.47;;
66927;SDS011;59882;45.624;11.698;2024-01-11T03:38:34;41.60;;;24.10;;
66927;SDS011;59882;45.624;11.698;2024-01-11T03:41:00;47.03;;;23.57;;
66927;SDS011;59882;45.624;11.698;2024-01-11T03:43:25;39.47;;;23.53;;
66927;SDS011;59882;45.624;11.698;2024-01-11T03:45:51;40.67;;;23.70;;
66927;SDS011;59882;45.624;11.698;2024-01-11T03:48:16;41.33;;;22.67;;
66927;SDS011;59882;45.624;11.698;2024-01-11T03:50:42;40.03;;;22.23;;
66927;SDS011;59882;45.624;11.698;2024-01-11T03:53:07;40.13;;;20.37;;
66927;SDS011;59882;45.624;11.698;2024-01-11T03:55:33;37.73;;;21.03;;
66927;SDS011;59882;45.624;11.698;2024-01-11T03:57:59;39.20;;;21.47;;
66927;SDS011;59882;45.624;11.698;2024-01-11T04:00:24;38.22;;;20.85;;
66927;SDS011;59882;45.624;11.698;2024-01-11T04:02:50;39.83;;;21.57;;
66927;SDS011;59882;45.624;11.698;2024-01-11T04:05:16;37.58;;;20.33;;
66927;SDS011;59882;45.624;11.698;2024-01-11T04:07:41;37.33;;;20.10;;
66927;SDS011;59882;45.624;11.698;2024-01-11T04:10:08;42.80;;;22.20;;
66927;SDS011;59882;45.624;11.698;2024-01-11T04:12:36;37.83;;;19.77;;
66927;SDS011;59882;45.624;11.698;2024-01-11T04:15:02;44.07;;;20.33;;
66927;SDS011;59882;45.624;11.698;2024-01-11T04:17:28;36.67;;;19.58;;
66927;SDS011;59882;45.624;11.698;2024-01-11T04:19:54;38.93;;;19.77;;
66927;SDS011;59882;45.624;11.698;2024-01-11T04:22:20;38.90;;;20.30;;
66927;SDS011;59882;45.624;11.698;2024-01-11T04:24:45;35.53;;;19.40;;
66927;SDS011;59882;45.624;11.698;2024-01-11T04:27:11;38.05;;;20.30;;
66927;SDS011;59882;45.624;11.698;2024-01-11T04:29:37;37.40;;;20.17;;
66927;SDS011;59882;45.624;11.698;2024-01-11T04:32:02;35.17;;;19.02;;
66927;SDS011;59882;45.624;11.698;2024-01-11T04:34:28;37.73;;;19.60;;
66927;SDS011;59882;45.624;11.698;2024-01-11T04:36:54;41.38;;;20.27;;
66927;SDS011;59882;45.624;11.698;2024-01-11T04:39:20;36.27;;;18.23;;
66927;SDS011;59882;45.624;11.698;2024-01-11T04:41:45;37.97;;;20.40;;
66927;SDS011;59882;45.624;11.698;2024-01-11T04:44:11;34.50;;;19.17;;
66927;SDS011;59882;45.624;11.698;2024-01-11T04:46:36;34.67;;;18.00;;
66927;SDS011;59882;45.624;11.698;2024-01-11T04:49:02;35.80;;;17.60;;
66927;SDS011;59882;45.624;11.698;2024-01-11T04:51:27;34.67;;;19.67;;
66927;SDS011;59882;45.624;11.698;2024-01-11T04:53:53;38.03;;;19.15;;
66927;SDS011;59882;45.624;11.698;2024-01-11T04:56:19;33.78;;;19.52;;
66927;SDS011;59882;45.624;11.698;2024-01-11T04:58:45;33.70;;;19.00;;
66927;SDS011;59882;45.624;11.698;2024-01-11T05:01:11;35.17;;;18.38;;
66927;SDS011;59882;45.624;11.698;2024-01-11T05:03:42;32.33;;;18.63;;
66927;SDS011;59882;45.624;11.698;2024-01-11T05:06:08;34.20;;;18.47;;
66927;SDS011;59882;45.624;11.698;2024-01-11T05:08:46;34.38;;;18.80;;
66927;SDS011;59882;45.624;11.698;2024-01-11T05:11:16;32.97;;;18.20;;
66927;SDS011;59882;45.624;11.698;2024-01-11T05:13:51;31.67;;;17.15;;
66927;SDS011;59882;45.624;11.698;2024-01-11T05:18:47;32.70;;;16.33;;
66927;SDS011;59882;45.624;11.698;2024-01-11T05:21:13;32.00;;;17.95;;
66927;SDS011;59882;45.624;11.698;2024-01-11T05:23:42;38.22;;;18.27;;
66927;SDS011;59882;45.624;11.698;2024-01-11T05:26:08;34.17;;;18.57;;
66927;SDS011;59882;45.624;11.698;2024-01-11T05:28:34;42.13;;;18.73;;
66927;SDS011;59882;45.624;11.698;2024-01-11T05:31:00;30.73;;;17.27;;
66927;SDS011;59882;45.624;11.698;2024-01-11T05:33:26;32.20;;;16.97;;
66927;SDS011;59882;45.624;11.698;2024-01-11T05:35:51;33.57;;;17.40;;
66927;SDS011;59882;45.624;11.698;2024-01-11T05:38:18;31.43;;;15.60;;
66927;SDS011;59882;45.624;11.698;2024-01-11T05:40:44;35.03;;;17.48;;
66927;SDS011;59882;45.624;11.698;2024-01-11T05:43:10;29.42;;;16.50;;
66927;SDS011;59882;45.624;11.698;2024-01-11T05:45:36;31.27;;;17.27;;
66927;SDS011;59882;45.624;11.698;2024-01-11T05:48:01;35.28;;;19.23;;
66927;SDS011;59882;45.624;11.698;2024-01-11T05:50:27;30.60;;;16.27;;
66927;SDS011;59882;45.624;11.698;2024-01-11T05:52:53;27.63;;;15.88;;
66927;SDS011;59882;45.624;11.698;2024-01-11T05:55:19;30.27;;;16.70;;
66927;SDS011;59882;45.624;11.698;2024-01-11T05:57:45;30.85;;;17.77;;
66927;SDS011;59882;45.624;11.698;2024-01-11T06:00:11;41.87;;;23.87;;
66927;SDS011;59882;45.624;11.698;2024-01-11T06:02:37;37.53;;;19.48;;
66927;SDS011;59882;45.624;11.698;2024-01-11T06:05:02;34.10;;;18.15;;
66927;SDS011;59882;45.624;11.698;2024-01-11T06:07:28;37.33;;;19.30;;
66927;SDS011;59882;45.624;11.698;2024-01-11T06:09:54;31.80;;;17.58;;
66927;SDS011;59882;45.624;11.698;2024-01-11T06:12:20;29.47;;;16.47;;
66927;SDS011;59882;45.624;11.698;2024-01-11T06:14:45;31.85;;;17.08;;
66927;SDS011;59882;45.624;11.698;2024-01-11T06:17:11;28.40;;;15.60;;
66927;SDS011;59882;45.624;11.698;2024-01-11T06:19:37;32.75;;;17.20;;
66927;SDS011;59882;45.624;11.698;2024-01-11T06:22:03;28.55;;;15.30;;
66927;SDS011;59882;45.624;11.698;2024-01-11T06:24:30;32.15;;;17.33;;
66927;SDS011;59882;45.624;11.698;2024-01-11T06:26:56;34.60;;;17.00;;
66927;SDS011;59882;45.624;11.698;2024-01-11T06:29:22;39.90;;;19.50;;
66927;SDS011;59882;45.624;11.698;2024-01-11T06:31:47;36.60;;;19.40;;
66927;SDS011;59882;45.624;11.698;2024-01-11T06:34:13;51.55;;;21.85;;
66927;SDS011;59882;45.624;11.698;2024-01-11T06:36:38;44.60;;;22.80;;
66927;SDS011;59882;45.624;11.698;2024-01-11T06:39:04;56.13;;;26.63;;
66927;SDS011;59882;45.624;11.698;2024-01-11T06:41:30;54.63;;;24.37;;
66927;SDS011;59882;45.624;11.698;2024-01-11T06:43:55;43.72;;;22.52;;
66927;SDS011;59882;45.624;11.698;2024-01-11T06:46:21;44.03;;;23.50;;
66927;SDS011;59882;45.624;11.698;2024-01-11T06:48:48;47.30;;;23.85;;
66927;SDS011;59882;45.624;11.698;2024-01-11T06:51:14;38.10;;;19.07;;
66927;SDS011;59882;45.624;11.698;2024-01-11T06:53:41;44.22;;;22.63;;
66927;SDS011;59882;45.624;11.698;2024-01-11T06:56:13;48.80;;;23.48;;
66927;SDS011;59882;45.624;11.698;2024-01-11T06:58:43;45.17;;;21.80;;
66927;SDS011;59882;45.624;11.698;2024-01-11T07:01:10;51.20;;;23.30;;
66927;SDS011;59882;45.624;11.698;2024-01-11T07:03:35;43.70;;;22.57;;
66927;SDS011;59882;45.624;11.698;2024-01-11T07:06:02;49.83;;;25.08;;
66927;SDS011;59882;45.624;11.698;2024-01-11T07:08:30;43.53;;;20.42;;
66927;SDS011;59882;45.624;11.698;2024-01-11T07:10:57;44.22;;;21.58;;
66927;SDS011;59882;45.624;11.698;2024-01-11T07:13:23;47.35;;;24.38;;
66927;SDS011;59882;45.624;11.698;2024-01-11T07:15:49;62.43;;;31.53;;
66927;SDS011;59882;45.624;11.698;2024-01-11T07:18:16;53.42;;;27.65;;
66927;SDS011;59882;45.624;11.698;2024-01-11T07:20:42;47.43;;;25.83;;
66927;SDS011;59882;45.624;11.698;2024-01-11T07:23:08;42.08;;;21.80;;
66927;SDS011;59882;45.624;11.698;2024-01-11T07:25:34;52.60;;;25.45;;
66927;SDS011;59882;45.624;11.698;2024-01-11T07:28:00;42.03;;;21.73;;
66927;SDS011;59882;45.624;11.698;2024-01-11T07:30:26;46.20;;;21.30;;
66927;SDS011;59882;45.624;11.698;2024-01-11T07:32:52;38.93;;;19.27;;
66927;SDS011;59882;45.624;11.698;2024-01-11T07:35:17;50.10;;;24.67;;
66927;SDS011;59882;45.624;11.698;2024-01-11T07:37:43;43.87;;;21.57;;
66927;SDS011;59882;45.624;11.698;2024-01-11T07:40:09;42.00;;;21.10;;
66927;SDS011;59882;45.624;11.698;2024-01-11T07:42:38;47.22;;;23.65;;
66927;SDS011;59882;45.624;11.698;2024-01-11T07:45:05;43.60;;;22.57;;
66927;SDS011;59882;45.624;11.698;2024-01-11T07:47:31;46.88;;;26.90;;
66927;SDS011;59882;45.624;11.698;2024-01-11T07:49:57;52.25;;;28.88;;
66927;SDS011;59882;45.624;11.698;2024-01-11T07:52:23;70.57;;;39.47;;
66927;SDS011;59882;45.624;11.698;2024-01-11T07:54:49;62.00;;;33.20;;
66927;SDS011;59882;45.624;11.698;2024-01-11T07:57:14;234.23;;;90.33;;
66927;SDS011;59882;45.624;11.698;2024-01-11T07:59:40;524.63;;;240.20;;
66927;SDS011;59882;45.624;11.698;2024-01-11T08:02:06;172.80;;;71.43;;
66927;SDS011;59882;45.624;11.698;2024-01-11T08:04:31;215.57;;;87.55;;
66927;SDS011;59882;45.624;11.698;2024-01-11T08:06:57;269.87;;;107.17;;
66927;SDS011;59882;45.624;11.698;2024-01-11T08:09:27;144.15;;;63.85;;
66927;SDS011;59882;45.624;11.698;2024-01-11T08:11:53;55.58;;;28.02;;
66927;SDS011;59882;45.624;11.698;2024-01-11T08:14:19;56.28;;;27.42;;
66927;SDS011;59882;45.624;11.698;2024-01-11T08:16:45;53.70;;;25.93;;
66927;SDS011;59882;45.624;11.698;2024-01-11T08:19:11;51.92;;;25.52;;
66927;SDS011;59882;45.624;11.698;2024-01-11T08:21:40;57.83;;;27.88;;
66927;SDS011;59882;45.624;11.698;2024-01-11T08:24:08;61.38;;;25.40;;
66927;SDS011;59882;45.624;11.698;2024-01-11T08:26:34;55.27;;;24.93;;
66927;SDS011;59882;45.624;11.698;2024-01-11T08:29:00;53.45;;;23.65;;
66927;SDS011;59882;45.624;11.698;2024-01-11T08:31:26;53.03;;;22.73;;
66927;SDS011;59882;45.624;11.698;2024-01-11T08:33:52;49.20;;;23.63;;
66927;SDS011;59882;45.624;11.698;2024-01-11T08:36:18;52.13;;;25.37;;
66927;SDS011;59882;45.624;11.698;2024-01-11T08:38:44;55.58;;;27.70;;
66927;SDS011;59882;45.624;11.698;2024-01-11T08:41:09;50.20;;;30.37;;
66927;SDS011;59882;45.624;11.698;2024-01-11T08:43:35;51.22;;;27.15;;
66927;SDS011;59882;45.624;11.698;2024-01-11T08:46:00;66.10;;;34.20;;
66927;SDS011;59882;45.624;11.698;2024-01-11T08:48:27;112.80;;;54.97;;
66927;SDS011;59882;45.624;11.698;2024-01-11T08:50:53;75.35;;;38.63;;
66927;SDS011;59882;45.624;11.698;2024-01-11T08:53:19;71.50;;;37.33;;
66927;SDS011;59882;45.624;11.698;2024-01-11T08:55:45;66.05;;;34.60;;
66927;SDS011;59882;45.624;11.698;2024-01-11T08:58:10;47.00;;;25.80;;
66927;SDS011;59882;45.624;11.698;2024-01-11T09:00:36;42.03;;;22.00;;
66927;SDS011;59882;45.624;11.698;2024-01-11T09:03:03;34.25;;;19.63;;
66927;SDS011;59882;45.624;11.698;2024-01-11T09:05:29;30.58;;;18.08;;
66927;SDS011;59882;45.624;11.698;2024-01-11T09:07:54;32.70;;;17.38;;
66927;SDS011;59882;45.624;11.698;2024-01-11T09:10:20;31.07;;;17.40;;
66927;SDS011;59882;45.624;11.698;2024-01-11T09:12:46;30.65;;;17.40;;
66927;SDS011;59882;45.624;11.698;2024-01-11T09:15:11;30.73;;;15.57;;
66927;SDS011;59882;45.624;11.698;2024-01-11T09:17:37;31.08;;;16.08;;
66927;SDS011;59882;45.624;11.698;2024-01-11T09:20:04;24.73;;;13.90;;
66927;SDS011;59882;45.624;11.698;2024-01-11T09:22:30;27.02;;;15.95;;
66927;SDS011;59882;45.624;11.698;2024-01-11T09:24:55;24.73;;;13.63;;
66927;SDS011;59882;45.624;11.698;2024-01-11T09:27:21;26.77;;;14.90;;
66927;SDS011;59882;45.624;11.698;2024-01-11T09:29:47;26.35;;;13.88;;
66927;SDS011;59882;45.624;11.698;2024-01-11T09:32:13;23.63;;;12.77;;
66927;SDS011;59882;45.624;11.698;2024-01-11T09:34:38;32.50;;;13.77;;
66927;SDS011;59882;45.624;11.698;2024-01-11T09:37:04;24.70;;;13.52;;
66927;SDS011;59882;45.624;11.698;2024-01-11T09:39:30;28.63;;;14.50;;
66927;SDS011;59882;45.624;11.698;2024-01-11T09:42:04;28.40;;;15.65;;
66927;SDS011;59882;45.624;11.698;2024-01-11T09:44:34;27.73;;;15.37;;
66927;SDS011;59882;45.624;11.698;2024-01-11T09:47:01;35.22;;;17.27;;
66927;SDS011;59882;45.624;11.698;2024-01-11T09:49:28;33.78;;;17.50;;
66927;SDS011;59882;45.624;11.698;2024-01-11T09:51:56;28.08;;;16.60;;
66927;SDS011;59882;45.624;11.698;2024-01-11T09:54:22;34.67;;;16.77;;
66927;SDS011;59882;45.624;11.698;2024-01-11T09:56:50;30.17;;;15.57;;
66927;SDS011;59882;45.624;11.698;2024-01-11T09:59:18;25.58;;;13.25;;
66927;SDS011;59882;45.624;11.698;2024-01-11T10:01:47;29.20;;;16.15;;
66927;SDS011;59882;45.624;11.698;2024-01-11T10:04:13;29.02;;;15.90;;
66927;SDS011;59882;45.624;11.698;2024-01-11T10:06:40;26.43;;;14.37;;
66927;SDS011;59882;45.624;11.698;2024-01-11T10:09:06;24.75;;;14.52;;
66927;SDS011;59882;45.624;11.698;2024-01-11T10:11:33;26.05;;;14.38;;
66927;SDS011;59882;45.624;11.698;2024-01-11T10:13:59;25.05;;;15.32;;
66927;SDS011;59882;45.624;11.698;2024-01-11T10:16:27;27.25;;;14.63;;
66927;SDS011;59882;45.624;11.698;2024-01-11T10:18:54;28.33;;;15.93;;
66927;SDS011;59882;45.624;11.698;2024-01-11T10:21:20;32.50;;;18.23;;
66927;SDS011;59882;45.624;11.698;2024-01-11T10:23:46;33.67;;;17.67;;
66927;SDS011;59882;45.624;11.698;2024-01-11T10:26:15;25.70;;;13.40;;
66927;SDS011;59882;45.624;11.698;2024-01-11T10:28:44;24.65;;;13.85;;
66927;SDS011;59882;45.624;11.698;2024-01-11T10:31:10;25.45;;;13.88;;
66927;SDS011;59882;45.624;11.698;2024-01-11T10:33:35;24.13;;;14.17;;
66927;SDS011;59882;45.624;11.698;2024-01-11T10:36:02;21.98;;;13.07;;
66927;SDS011;59882;45.624;11.698;2024-01-11T10:38:29;25.30;;;13.80;;
66927;SDS011;59882;45.624;11.698;2024-01-11T10:40:59;25.10;;;13.73;;
66927;SDS011;59882;45.624;11.698;2024-01-11T10:43:26;25.85;;;13.65;;
66927;SDS011;59882;45.624;11.698;2024-01-11T10:45:52;28.70;;;12.23;;
66927;SDS011;59882;45.624;11.698;2024-01-11T10:48:23;25.45;;;13.55;;
66927;SDS011;59882;45.624;11.698;2024-01-11T10:51:00;24.85;;;14.13;;
66927;SDS011;59882;45.624;11.698;2024-01-11T10:53:46;25.58;;;14.05;;
66927;SDS011;59882;45.624;11.698;2024-01-11T10:56:12;22.02;;;13.55;;
66927;SDS011;59882;45.624;11.698;2024-01-11T10:58:41;25.40;;;14.17;;
66927;SDS011;59882;45.624;11.698;2024-01-11T11:01:08;24.25;;;13.45;;
66927;SDS011;59882;45.624;11.698;2024-01-11T11:03:35;25.88;;;13.50;;
66927;SDS011;59882;45.624;11.698;2024-01-11T11:06:02;24.98;;;12.77;;
66927;SDS011;59882;45.624;11.698;2024-01-11T11:08:31;21.92;;;13.15;;
66927;SDS011;59882;45.624;11.698;2024-01-11T11:10:57;36.10;;;13.13;;
66927;SDS011;59882;45.624;11.698;2024-01-11T11:13:24;25.73;;;13.27;;
66927;SDS011;59882;45.624;11.698;2024-01-11T11:15:54;21.20;;;13.00;;
66927;SDS011;59882;45.624;11.698;2024-01-11T11:18:22;23.85;;;12.77;;
66927;SDS011;59882;45.624;11.698;2024-01-11T11:20:50;23.13;;;13.98;;
66927;SDS011;59882;45.624;11.698;2024-01-11T11:23:17;29.30;;;15.57;;
66927;SDS011;59882;45.624;11.698;2024-01-11T11:25:47;25.38;;;15.27;;
66927;SDS011;59882;45.624;11.698;2024-01-11T11:28:15;26.52;;;15.75;;
66927;SDS011;59882;45.624;11.698;2024-01-11T11:30:43;21.85;;;13.55;;
66927;SDS011;59882;45.624;11.698;2024-01-11T11:33:25;24.42;;;13.70;;
66927;SDS011;59882;45.624;11.698;2024-01-11T11:35:59;26.50;;;14.13;;
66927;SDS011;59882;45.624;11.698;2024-01-11T11:38:28;28.42;;;14.75;;
66927;SDS011;59882;45.624;11.698;2024-01-11T11:40:56;23.55;;;13.60;;
66927;SDS011;59882;45.624;11.698;2024-01-11T11:43:23;25.92;;;15.40;;
66927;SDS011;59882;45.624;11.698;2024-01-11T11:45:52;26.30;;;15.45;;
66927;SDS011;59882;45.624;11.698;2024-01-11T11:53:36;25.55;;;14.77;;
66927;SDS011;59882;45.624;11.698;2024-01-11T11:56:03;26.45;;;14.18;;
66927;SDS011;59882;45.624;11.698;2024-01-11T11:58:29;25.13;;;14.50;;
66927;SDS011;59882;45.624;11.698;2024-01-11T12:00:56;21.30;;;13.73;;
66927;SDS011;59882;45.624;11.698;2024-01-11T12:03:33;26.17;;;16.08;;
66927;SDS011;59882;45.624;11.698;2024-01-11T12:06:17;22.33;;;14.10;;
66927;SDS011;59882;45.624;11.698;2024-01-11T12:08:45;24.45;;;15.45;;
66927;SDS011;59882;45.624;11.698;2024-01-11T12:11:12;23.00;;;12.95;;
66927;SDS011;59882;45.624;11.698;2024-01-11T12:13:39;23.23;;;14.93;;
66927;SDS011;59882;45.624;11.698;2024-01-11T12:16:06;23.08;;;13.80;;
66927;SDS011;59882;45.624;11.698;2024-01-11T12:18:31;22.65;;;14.05;;
66927;SDS011;59882;45.624;11.698;2024-01-11T12:20:57;21.90;;;13.97;;
66927;SDS011;59882;45.624;11.698;2024-01-11T12:23:22;21.27;;;13.53;;
66927;SDS011;59882;45.624;11.698;2024-01-11T12:25:48;21.17;;;14.73;;
66927;SDS011;59882;45.624;11.698;2024-01-11T12:28:14;18.13;;;11.57;;
66927;SDS011;59882;45.624;11.698;2024-01-11T12:30:40;20.23;;;13.57;;
66927;SDS011;59882;45.624;11.698;2024-01-11T12:33:06;18.35;;;12.85;;
66927;SDS011;59882;45.624;11.698;2024-01-11T12:35:32;18.58;;;13.40;;
66927;SDS011;59882;45.624;11.698;2024-01-11T12:37:59;19.27;;;12.83;;
66927;SDS011;59882;45.624;11.698;2024-01-11T12:40:26;18.00;;;13.15;;
66927;SDS011;59882;45.624;11.698;2024-01-11T12:42:53;17.02;;;11.43;;
66927;SDS011;59882;45.624;11.698;2024-01-11T12:45:19;18.03;;;13.10;;
66927;SDS011;59882;45.624;11.698;2024-01-11T12:47:45;18.50;;;13.10;;
66927;SDS011;59882;45.624;11.698;2024-01-11T12:50:11;22.73;;;13.55;;
66927;SDS011;59882;45.624;11.698;2024-01-11T12:52:37;18.83;;;12.82;;
66927;SDS011;59882;45.624;11.698;2024-01-11T12:55:04;17.98;;;13.60;;
66927;SDS011;59882;45.624;11.698;2024-01-11T12:57:33;18.60;;;13.20;;
66927;SDS011;59882;45.624;11.698;2024-01-11T13:00:08;17.40;;;13.18;;
66927;SDS011;59882;45.624;11.698;2024-01-11T13:02:38;25.48;;;15.75;;
66927;SDS011;59882;45.624;11.698;2024-01-11T13:05:04;20.90;;;14.63;;
66927;SDS011;59882;45.624;11.698;2024-01-11T13:07:32;22.95;;;14.70;;
66927;SDS011;59882;45.624;11.698;2024-01-11T13:09:58;19.45;;;13.15;;
66927;SDS011;59882;45.624;11.698;2024-01-11T13:12:24;17.58;;;12.73;;
66927;SDS011;59882;45.624;11.698;2024-01-11T13:14:50;16.93;;;11.73;;
66927;SDS011;59882;45.624;11.698;2024-01-11T13:17:17;17.52;;;12.82;;
66927;SDS011;59882;45.624;11.698;2024-01-11T13:19:43;19.43;;;13.27;;
66927;SDS011;59882;45.624;11.698;2024-01-11T13:22:10;17.50;;;12.50;;
66927;SDS011;59882;45.624;11.698;2024-01-11T13:24:35;16.30;;;12.18;;
66927;SDS011;59882;45.624;11.698;2024-01-11T13:27:01;17.33;;;12.73;;
66927;SDS011;59882;45.624;11.698;2024-01-11T13:29:27;17.23;;;12.18;;
66927;SDS011;59882;45.624;11.698;2024-01-11T13:31:52;22.43;;;12.10;;
66927;SDS011;59882;45.624;11.698;2024-01-11T13:34:18;15.18;;;11.57;;
66927;SDS011;59882;45.624;11.698;2024-01-11T13:36:44;16.40;;;11.33;;
66927;SDS011;59882;45.624;11.698;2024-01-11T13:39:10;16.73;;;11.90;;
66927;SDS011;59882;45.624;11.698;2024-01-11T13:41:35;16.63;;;12.03;;
66927;SDS011;59882;45.624;11.698;2024-01-11T13:44:01;17.33;;;12.32;;
66927;SDS011;59882;45.624;11.698;2024-01-11T13:46:27;17.53;;;12.30;;
66927;SDS011;59882;45.624;11.698;2024-01-11T13:48:53;17.27;;;11.90;;
66927;SDS011;59882;45.624;11.698;2024-01-11T13:51:18;16.07;;;11.97;;
66927;SDS011;59882;45.624;11.698;2024-01-11T13:53:44;15.70;;;11.32;;
66927;SDS011;59882;45.624;11.698;2024-01-11T13:56:09;14.40;;;10.10;;
66927;SDS011;59882;45.624;11.698;2024-01-11T13:58:35;14.40;;;10.25;;
66927;SDS011;59882;45.624;11.698;2024-01-11T14:01:01;15.03;;;11.03;;
66927;SDS011;59882;45.624;11.698;2024-01-11T14:03:27;16.40;;;9.93;;
66927;SDS011;59882;45.624;11.698;2024-01-11T14:05:54;15.43;;;10.43;;
66927;SDS011;59882;45.624;11.698;2024-01-11T14:08:19;13.70;;;9.43;;
66927;SDS011;59882;45.624;11.698;2024-01-11T14:10:45;12.93;;;9.00;;
66927;SDS011;59882;45.624;11.698;2024-01-11T14:13:11;12.57;;;9.47;;